This is the latest recevied weather packets stored in our database for station/object WW5JC. If no packets are shown the sender has not sent any weather packets the latest 1 day(s).
| Time | Temp. | Humidity | Pressure | Rain* | Wind** | Luminosity | Snow |
|---|---|---|---|---|---|---|---|
| 1778107570 | 13.33° C | 96% | 1016.1 hPa | 0 mm | - | 44 W/m² | - |
| 1778106659 | 13.33° C | 96% | 1016.2 hPa | 0 mm | - | 47 W/m² | - |
| 1778105448 | 13.33° C | 96% | 1016.1 hPa | 0 mm | - | 44 W/m² | - |
| 1778103022 | 13.89° C | 95% | 1016.1 hPa | 0 mm | - | 43 W/m² | - |
| 1778102413 | 13.89° C | 94% | 1015.9 hPa | 0 mm | - | 65 W/m² | - |
| 1778099981 | 13.89° C | 96% | 1015.9 hPa | 0 mm | - | 78 W/m² | - |
| 1778098467 | 14.44° C | 97% | 1015.6 hPa | 0 mm | - | 96 W/m² | - |
| 1778097253 | 14.44° C | 97% | 1016.2 hPa | 0 mm | - | 56 W/m² | - |
| 1778096344 | 13.89° C | 98% | 1015.7 hPa | 0 mm | - | 86 W/m² | - |
| 1778094524 | 13.89° C | 98% | 1015 hPa | 0 mm | - | 76 W/m² | - |
| 1778094220 | 13.33° C | 98% | 1014.6 hPa | 0 mm | - | 158 W/m² | - |
| 1778093912 | 13.89° C | 98% | 1014.3 hPa | 0 mm | - | 97 W/m² | - |
| 1778093306 | 13.33° C | 98% | 1014.6 hPa | 0 mm | - | 122 W/m² | - |
| 1778092093 | 13.33° C | 99% | 1015.6 hPa | 0 mm | - | 186 W/m² | - |
| 1778091482 | 12.78° C | 99% | 1015.5 hPa | 0 mm | - | 147 W/m² | - |
| 1778090876 | 12.78° C | 99% | 1015.9 hPa | 0 mm | - | 120 W/m² | - |
| 1778090268 | 12.78° C | 99% | 1017 hPa | 0 mm | - | 83 W/m² | - |
| 1778089965 | 12.78° C | 99% | 1017.2 hPa | 0 mm | - | 64 W/m² | - |
| 1778089058 | 12.78° C | 99% | 1016 hPa | 0 mm | - | 68 W/m² | - |
| 1778088451 | 12.78° C | 99% | 1015.8 hPa | 0 mm | - | 88 W/m² | - |
| 1778086936 | 12.22° C | 99% | 1015.9 hPa | 0 mm | - | 156 W/m² | - |
| 1778086028 | 12.22° C | 98% | 1020 hPa | 0 mm | - | 7 W/m² | - |
| 1778084813 | 12.22° C | 96% | 1016.7 hPa | 0 mm | - | 28 W/m² | - |
| 1778083904 | 12.78° C | 94% | 1016.7 hPa | 0 mm | - | 38 W/m² | - |
| 1778083602 | 12.78° C | 94% | 1016.5 hPa | 0 mm | - | 51 W/m² | - |
* Rain latest hour (hover to see other rain measurements)
** Current wind speed in m/s (hover to see current wind gust speed)